CheckWX is a tool to help pilots better visualize weather data.  It is not intended as a substitute for an official pre-flight weather briefing.

12:09:37 UTC

YWGT METAR
Wangaratta Airport
Australia
Current

40 mins ago

YWGT 161130Z AUTO 00000KT 0150 // ////// 08/08 Q1010
Observed
Oct-16 @ 11:30 UTC
Visibility
100 meters
Temperature
C / 46°F
Dewpoint
C / 46°F
Humidity
100%
Altimeter
29.82" Hg
Pressure
1009.92 hPa
Previous

1 hour ago

YWGT 161100Z AUTO 36001KT 0100 // ////// 10/10 Q1010
Observed
Oct-16 @ 11:00 UTC
Wind
  • 360° at 1 KTS
Visibility
100 meters
Temperature
10°C / 50°F
Dewpoint
10°C / 50°F
Humidity
100%
Altimeter
29.82" Hg
Pressure
1009.92 hPa
Previous

2 hours ago

YWGT 161000Z AUTO 36005KT 9999 // ////// 12/12 Q1010
Observed
Oct-16 @ 10:00 UTC
Wind
  • 360° at 5 KTS
Visibility
10,000+ meters
Temperature
12°C / 54°F
Dewpoint
12°C / 54°F
Humidity
100%
Altimeter
29.82" Hg
Pressure
1009.92 hPa